Flight Track Log - Related Links

Times and Time Zones

All times are in EST time to prevent confusion due to time zone crossing. See the AWI4080 flight status page for this flight to view local times or setup timezone preferences in your user account.

Time Position Orientation Groundspeed Altitude Reporting Facility
EST Latitude Longitude Course Direction KTS MPH feet Rate Location/Type
Wed 09:45:07 PM 39.8667 -75.2667 North 179 206 700  Level Philadelphia TRACON
Wed 09:45:37 PM 39.8333 -75.2833 201° Southwest 185 213 2,100 2,929 Climbing Philadelphia TRACON
Wed 09:46:31 PM 39.8000 -75.3167 218° Southwest 223 257 4,800 2,305 Climbing Philadelphia TRACON
Wed 09:48:00 PM 40.1899 -75.0885 North  Level Estimated
Wed 09:49:00 PM 40.2692 -75.0502 46° Northeast  Level Estimated
Wed 09:49:00 PM 39.7844 -75.0878 95° East 276 318 9,900  Level New York Center
Wed 09:50:00 PM 40.3486 -75.0118 North  Level Estimated
Wed 09:50:00 PM 39.7869 -74.9581 89° East 310 357 11,100  Level New York Center
Wed 09:51:00 PM 39.7953 -74.8397 85° East 341 392 12,100 1,300 Climbing New York Center
Wed 09:52:00 PM 39.8656 -74.7383 48° Northeast 348 400 13,700 1,650 Climbing New York Center
Wed 09:53:00 PM 39.9378 -74.6342 48° Northeast 364 419 15,400 1,700 Climbing New York Center
Wed 09:54:00 PM 40.0119 -74.5272 48° Northeast 383 441 17,100 1,686 Climbing New York Center
Wed 09:55:01 PM 40.0903 -74.4283 44° Northeast 397 457 18,800 1,650 Climbing New York Center
Wed 09:56:00 PM 40.1825 -74.3436 35° Northeast 397 457 20,400 1,513 Climbing New York Center
Wed 09:57:00 PM 40.2786 -74.2669 31° Northeast 397 457 21,800 1,400 Climbing New York Center
Wed 09:58:00 PM 40.3744 -74.1928 31° Northeast 402 463 23,200 1,100 Climbing New York Center
Wed 09:59:00 PM 40.4728 -74.1131 32° Northeast 408 470 24,000 400 Climbing New York Center
Wed 10:00:00 PM 40.5769 -74.0308 31° Northeast 418 481 24,000  Level New York Center
Wed 10:01:36 PM 40.7531 -73.8981 30° Northeast 451 519 24,000  Level Boston Center
Wed 10:02:38 PM 40.8514 -73.7917 39° Northeast 457 526 24,000 -293 Level Boston Center
Wed 10:03:39 PM 40.9550 -73.6972 35° Northeast 456 525 23,400 -492 Descending Boston Center
Wed 10:04:40 PM 41.0717 -73.6372 21° North 451 519 23,000 -689 Descending Boston Center
Wed 10:05:41 PM 41.1967 -73.6456 357° North 450 518 22,000 -1,261 Descending Boston Center
Wed 10:06:39 PM 41.3233 -73.6553 357° North 453 521 20,500 -1,339 Descending Boston Center
Wed 10:07:42 PM 41.4417 -73.6669 356° North 430 495 19,300 -1,377 Descending Boston Center
Wed 10:08:41 PM 41.5753 -73.6822 355° North 419 482 17,700 -1,550 Descending Boston Center
Wed 10:09:42 PM 41.6861 -73.6939 356° North 404 465 16,200 -1,452 Descending Boston Center
Wed 10:10:45 PM 41.7861 -73.7044 355° North 362 417 14,700 -1,366 Descending Boston Center
Wed 10:11:45 PM 41.8797 -73.7128 356° North 344 396 13,400 -1,140 Descending Boston Center
Wed 10:12:46 PM 41.9717 -73.7217 356° North 335 386 12,400 -1,041 Descending Boston Center
Wed 10:13:46 PM 42.0689 -73.7319 356° North 328 377 11,300 -966 Descending Boston Center
Wed 10:14:13 PM 42.1083 -73.7381 353° North 323 372 11,000 -300 Descending Boston Center
Wed 10:14:46 PM 42.1564 -73.7411 357° North 319 367 11,000 -97 Level Boston Center
Wed 10:15:15 PM 42.1967 -73.7472 354° North 318 366 10,900 -667 Descending Boston Center
Wed 10:15:49 PM 42.2400 -73.7539 354° North 295 339 10,300 -1,258 Descending Boston Center
Wed 10:16:17 PM 42.2711 -73.7636 347° North 268 308 9,600 -1,500 Descending Boston Center
Wed 10:16:49 PM 42.3128 -73.7761 347° North 271 312 8,800 -1,525 Descending Boston Center
Wed 10:17:16 PM 42.3450 -73.7825 352° North 261 300 8,100 -1,500 Descending Boston Center
Wed 10:17:49 PM 42.3847 -73.7875 355° North 265 305 7,300 -1,279 Descending Boston Center
Wed 10:18:17 PM 42.4147 -73.7886 358° North 248 285 6,800 -1,475 Descending Boston Center
Wed 10:18:50 PM 42.4483 -73.7911 357° North 230 265 5,800 -1,935 Descending Boston Center
Wed 10:19:19 PM 42.4717 -73.7933 356° North 204 235 4,800 -1,831 Descending Boston Center
Wed 10:19:49 PM 42.5036 -73.7942 359° North 203 234 4,000 -1,448 Descending Boston Center
Wed 10:20:17 PM 42.5272 -73.7944 360° North 192 221 3,400 -952 Descending Boston Center
Wed 10:20:52 PM 42.5575 -73.7967 357° North 197 227 3,000 -387 Descending Boston Center
Wed 10:21:19 PM 42.5825 -73.7986 357° North 194 223 3,000 100 Level Boston Center
Wed 10:21:52 PM 42.6119 -73.7992 359° North 197 227 3,100 -400 Climbing Boston Center
Wed 10:22:19 PM 42.6361 -73.7992 360° North 184 212 2,600 -1,100 Descending Boston Center
Wed 10:22:52 PM 42.6625 -73.8008 357° North 171 197 2,000 -873 Descending Boston Center
Wed 10:23:14 PM 42.6719 -73.8025 353° North 153 176 1,800 -814 Descending Boston Center
Wed 10:23:51 PM 42.6992 -73.8025 360° North 140 161 1,200 -806 Descending Boston Center
Wed 10:24:21 PM 42.7150 -73.8025 360° North 121 139 900 -762 Descending Boston Center
Wed 10:24:54 PM 42.7344 -73.8028 359° North 131 151 400 -909 Descending Boston Center

Login

Don't have an account? Register now (free) for customized features, flight alerts, and more!